Time;durP1;ratioP1;P1;durP2;ratioP2;P2;SDS_P1;SDS_P2;PMS_P1;PMS_P2;Temp;Humidity;BMP_temperature;BMP_pressure;BME280_temperature;BME280_humidity;BME280_pressure;Samples;Min_cycle;Max_cycle;Signal;HPM_P1;HPM_P2
2022/05/31 00:01:34;;;;;;;0.60;0.20;;;;;;;;;;5093672;28;20055;-76
2022/05/31 00:04:01;;;;;;;0.40;0.20;;;;;;;;;;5093811;28;20016;-76
2022/05/31 00:06:29;;;;;;;0.50;0.20;;;;;;;;;;5095245;28;20395;-77
2022/05/31 00:08:56;;;;;;;0.70;0.40;;;;;;;;;;5095330;28;20020;-77
2022/05/31 00:11:23;;;;;;;2.33;0.47;;;;;;;;;;5095327;28;20027;-77
2022/05/31 00:13:50;;;;;;;1.48;0.22;;;;;;;;;;5095356;28;20020;-76
2022/05/31 00:16:17;;;;;;;0.68;0.10;;;;;;;;;;5095145;28;20433;-77
2022/05/31 00:18:45;;;;;;;0.73;0.20;;;;;;;;;;5094987;28;20110;-76
2022/05/31 00:21:12;;;;;;;0.27;0.10;;;;;;;;;;5094988;28;20077;-77
2022/05/31 00:23:40;;;;;;;2.00;0.40;;;;;;;;;;5095114;28;20103;-76
2022/05/31 00:26:07;;;;;;;3.22;0.52;;;;;;;;;;5095135;28;20020;-77
2022/05/31 00:28:34;;;;;;;2.17;0.20;;;;;;;;;;5095054;28;20043;-76
2022/05/31 00:31:01;;;;;;;1.42;0.30;;;;;;;;;;5094988;28;20383;-77
2022/05/31 00:33:29;;;;;;;0.98;0.22;;;;;;;;;;5095069;28;20027;-77
2022/05/31 00:35:56;;;;;;;0.20;0.10;;;;;;;;;;5095040;28;20055;-77
2022/05/31 00:38:23;;;;;;;1.60;0.22;;;;;;;;;;5093348;28;20117;-77
2022/05/31 00:40:50;;;;;;;0.30;0.05;;;;;;;;;;5093196;28;20032;-76
2022/05/31 00:43:22;;;;;;;0.30;0.10;;;;;;;;;;5094576;28;20505;-79
2022/05/31 00:46:00;;;;;;;0.20;0.10;;;;;;;;;;5094632;28;20091;-77
2022/05/31 00:48:35;;;;;;;0.28;0.10;;;;;;;;;;5094474;28;20047;-77
2022/05/31 00:51:05;;;;;;;0.25;0.17;;;;;;;;;;5092895;28;20020;-77
2022/05/31 00:53:34;;;;;;;0.47;0.10;;;;;;;;;;5094377;28;20115;-77
2022/05/31 00:56:07;;;;;;;0.60;0.10;;;;;;;;;;5094306;28;20020;-77
2022/05/31 00:58:38;;;;;;;0.60;0.20;;;;;;;;;;5092850;28;20020;-76
2022/05/31 01:01:07;;;;;;;1.10;0.20;;;;;;;;;;5094190;28;20165;-78
2022/05/31 01:03:38;;;;;;;0.88;0.10;;;;;;;;;;5092813;28;20118;-78
2022/05/31 01:06:05;;;;;;;1.35;0.10;;;;;;;;;;5093787;28;20384;-77
2022/05/31 01:08:34;;;;;;;0.90;0.30;;;;;;;;;;5093893;28;20020;-78
2022/05/31 01:11:02;;;;;;;0.65;0.20;;;;;;;;;;5093991;28;20092;-78
2022/05/31 01:13:30;;;;;;;1.80;0.40;;;;;;;;;;5094283;28;20074;-77
2022/05/31 01:16:06;;;;;;;0.73;0.30;;;;;;;;;;5093944;28;20360;-78
2022/05/31 01:18:34;;;;;;;1.08;0.20;;;;;;;;;;5092573;28;20027;-76
2022/05/31 01:21:01;;;;;;;1.45;0.10;;;;;;;;;;5093892;28;20043;-76
2022/05/31 01:23:31;;;;;;;0.47;0.10;;;;;;;;;;5093910;28;20026;-76
2022/05/31 01:26:02;;;;;;;1.65;0.13;;;;;;;;;;5092400;28;20364;-77
2022/05/31 01:28:48;;;;;;;0.30;0.03;;;;;;;;;;5094001;28;20050;-77
2022/05/31 01:31:18;;;;;;;0.73;0.20;;;;;;;;;;5092275;28;20024;-77
2022/05/31 01:33:51;;;;;;;0.70;0.20;;;;;;;;;;5093616;28;20031;-77
2022/05/31 01:36:21;;;;;;;1.70;0.20;;;;;;;;;;5092204;28;20031;-77
2022/05/31 01:38:52;;;;;;;0.25;0.15;;;;;;;;;;5092251;28;20028;-76
2022/05/31 01:41:20;;;;;;;2.67;0.17;;;;;;;;;;5093679;28;20047;-76
2022/05/31 01:43:49;;;;;;;0.40;0.10;;;;;;;;;;5093838;28;20047;-78
2022/05/31 01:46:19;;;;;;;0.95;0.40;;;;;;;;;;5093533;28;20024;-78
2022/05/31 01:48:47;;;;;;;0.25;0.10;;;;;;;;;;5093651;28;20379;-76
2022/05/31 01:51:14;;;;;;;0.75;0.10;;;;;;;;;;5092088;28;20446;-76
2022/05/31 01:53:42;;;;;;;0.63;0.10;;;;;;;;;;5093449;28;20381;-76
2022/05/31 01:56:10;;;;;;;0.20;0.10;;;;;;;;;;5093438;28;20154;-76
2022/05/31 01:58:41;;;;;;;3.08;0.17;;;16.80;99.90;;;;;;5092049;28;20022;-77
2022/05/31 02:01:10;;;;;;;0.10;0.10;;;;;;;;;;5093254;28;20521;-77
2022/05/31 02:03:39;;;;;;;1.10;0.20;;;;;;;;;;5091919;28;20469;-77
2022/05/31 02:06:22;;;;;;;1.13;0.17;;;;;;;;;;5091926;28;20020;-77
2022/05/31 02:08:50;;;;;;;0.70;0.20;;;;;;;;;;5093572;28;20100;-77
2022/05/31 02:11:17;;;;;;;1.27;0.17;;;16.90;99.90;;;;;;5093542;28;20056;-76
2022/05/31 02:13:45;;;;;;;0.85;0.10;;;;;;;;;;5093536;28;20046;-76
2022/05/31 02:16:13;;;;;;;1.05;0.38;;;16.80;99.90;;;;;;5093155;28;20096;-77
2022/05/31 02:21:35;;;;;;;0.90;0.10;;;16.60;99.90;;;;;;5097880;28;20371;-75
2022/05/31 02:24:14;;;;;;;1.35;0.30;;;16.60;99.90;;;;;;5097845;28;20532;-77
2022/05/31 02:26:43;;;;;;;1.55;0.17;;;16.70;99.90;;;;;;5095981;28;20126;-77
2022/05/31 02:29:12;;;;;;;0.57;0.10;;;;;;;;;;5097339;28;20024;-77
2022/05/31 02:31:39;;;;;;;2.33;0.20;;;;;;;;;;5095938;28;20071;-77
2022/05/31 02:34:07;;;;;;;2.08;0.20;;;;;;;;;;5095811;28;20054;-77
2022/05/31 02:36:34;;;;;;;0.85;0.20;;;;;;;;;;5097760;28;20020;-78
2022/05/31 02:39:02;;;;;;;0.55;0.20;;;16.70;99.90;;;;;;5095662;28;20032;-77
2022/05/31 02:41:29;;;;;;;1.85;0.10;;;;;;;;;;5095559;28;20048;-77
2022/05/31 02:43:56;;;;;;;1.30;0.20;;;;;;;;;;5095716;28;20020;-77
2022/05/31 02:46:24;;;;;;;2.47;0.20;;;;;;;;;;5097150;28;20480;-76
2022/05/31 02:48:51;;;;;;;0.85;0.10;;;;;;;;;;5095474;28;20372;-77
2022/05/31 02:51:18;;;;;;;2.80;0.32;;;;;;;;;;5095432;28;20031;-77
2022/05/31 02:53:46;;;;;;;0.60;0.30;;;;;;;;;;5095191;28;20024;-77
2022/05/31 02:56:13;;;;;;;1.33;0.13;;;;;;;;;;5096856;28;20024;-78
2022/05/31 02:58:40;;;;;;;0.45;0.10;;;;;;;;;;5096970;28;20020;-77
2022/05/31 03:01:24;;;;;;;1.00;0.20;;;;;;;;;;5095122;28;20048;-76
2022/05/31 03:03:51;;;;;;;0.30;0.20;;;;;;;;;;5096580;28;20082;-76
2022/05/31 03:06:21;;;;;;;0.73;0.20;;;;;;;;;;5095109;28;20024;-78
2022/05/31 03:08:49;;;;;;;1.17;0.20;;;;;;;;;;5096795;28;20044;-77
2022/05/31 03:11:18;;;;;;;0.85;0.43;;;;;;;;;;5096573;28;20459;-77
2022/05/31 03:13:47;;;;;;;0.10;0.07;;;;;;;;;;5096561;28;20467;-76
2022/05/31 03:16:16;;;;;;;0.10;0.00;;;;;;;;;;5096281;28;20031;-76
2022/05/31 03:18:45;;;;;;;0.47;0.13;;;;;;;;;;5096317;28;20020;-76
2022/05/31 03:21:14;;;;;;;2.17;0.20;;;;;;;;;;5096414;28;20020;-76
2022/05/31 03:23:44;;;;;;;0.37;0.10;;;;;;;;;;5096360;28;20019;-76
2022/05/31 03:26:13;;;;;;;0.85;0.20;;;;;;;;;;5096417;28;20103;-76
2022/05/31 03:28:40;;;;;;;0.60;0.10;;;;;;;;;;5096071;28;20016;-78
2022/05/31 03:31:08;;;;;;;0.32;0.10;;;;;;;;;;5095288;28;20043;-76
2022/05/31 03:33:35;;;;;;;0.45;0.13;;;;;;;;;;5096103;28;20064;-77
2022/05/31 03:36:02;;;;;;;0.50;0.10;;;;;;;;;;5094511;28;20028;-77
2022/05/31 03:38:29;;;;;;;0.60;0.17;;;;;;;;;;5095857;28;20391;-77
2022/05/31 03:40:57;;;;;;;0.95;0.05;;;;;;;;;;5095778;28;20418;-77
2022/05/31 03:43:25;;;;;;;1.48;0.20;;;;;;;;;;5094419;28;20024;-75
2022/05/31 03:45:52;;;;;;;0.90;0.10;;;;;;;;;;5094360;28;20028;-77
2022/05/31 03:48:19;;;;;;;0.10;0.10;;;;;;;;;;5095842;28;20024;-77
2022/05/31 03:50:47;;;;;;;1.35;0.30;;;;;;;;;;5094875;28;20020;-76
2022/05/31 03:53:15;;;;;;;0.22;0.10;;;;;;;;;;5094482;28;20028;-76
2022/05/31 03:55:44;;;;;;;1.20;0.28;;;;;;;;;;5094113;28;20028;-76
2022/05/31 03:58:11;;;;;;;4.85;0.17;;;;;;;;;;5094127;28;20020;-77
2022/05/31 04:00:38;;;;;;;0.98;0.10;;;;;;;;;;5095108;28;20024;-76
2022/05/31 04:03:05;;;;;;;1.98;0.75;;;;;;;;;;5095647;28;20103;-75
2022/05/31 04:05:33;;;;;;;0.38;0.10;;;;;;;;;;5093960;28;20024;-76
2022/05/31 04:08:10;;;;;;;1.33;0.20;;;;;;;;;;5093877;28;20066;-76
2022/05/31 04:10:37;;;;;;;0.82;0.10;;;;;;;;;;5096713;28;20470;-75
2022/05/31 04:13:04;;;;;;;2.10;0.30;;;;;;;;;;5096979;28;20024;-77
2022/05/31 04:15:33;;;;;;;1.90;0.38;;;;;;;;;;5097886;28;20077;-75
2022/05/31 04:18:00;;;;;;;0.20;0.10;;;;;;;;;;5094730;28;20024;-77
2022/05/31 04:20:28;;;;;;;16.85;0.95;;;;;;;;;;5095052;28;20054;-76
2022/05/31 04:25:42;;;;;;;0.43;0.10;;;;;;;;;;5063139;28;20028;-77
2022/05/31 04:28:09;;;;;;;2.28;0.10;;;;;;;;;;5094820;28;20024;-76
2022/05/31 04:30:37;;;;;;;0.70;0.17;;;;;;;;;;5094737;28;20043;-77
2022/05/31 04:33:05;;;;;;;0.50;0.10;;;;;;;;;;5094835;28;20095;-75
2022/05/31 04:35:32;;;;;;;0.82;0.20;;;;;;;;;;5094786;28;20024;-76
2022/05/31 04:37:59;;;;;;;1.92;0.47;;;;;;;;;;5094686;28;20028;-76
2022/05/31 04:40:26;;;;;;;1.95;0.20;;;;;;;;;;5094795;28;20089;-77
2022/05/31 04:42:54;;;;;;;0.82;0.20;;;;;;;;;;5092241;28;20637;-76
2022/05/31 04:45:21;;;;;;;0.65;0.20;;;;;;;;;;5094506;28;20012;-77
2022/05/31 04:47:48;;;;;;;0.22;0.20;;;;;;;;;;5094609;28;20034;-76
2022/05/31 04:50:15;;;;;;;0.57;0.10;;;;;;;;;;5093077;28;20061;-75
2022/05/31 04:52:43;;;;;;;0.63;0.13;;;;;;;;;;5094706;28;20441;-76
2022/05/31 04:55:10;;;;;;;1.05;0.15;;;;;;;;;;5092969;28;20035;-76
2022/05/31 04:57:37;;;;;;;1.98;0.10;;;;;;;;;;5092993;28;20028;-76
2022/05/31 05:00:06;;;;;;;6.47;0.63;;;;;;;;;;5094501;28;20024;-77
2022/05/31 05:02:33;;;;;;;2.00;0.22;;;;;;;;;;5094107;28;20487;-77
2022/05/31 05:05:01;;;;;;;0.90;0.30;;;;;;;;;;5092888;28;20020;-76
2022/05/31 05:07:32;;;;;;;0.30;0.10;;;;;;;;;;5094124;28;20019;-75
2022/05/31 05:09:59;;;;;;;0.22;0.20;;;;;;;;;;5094333;28;20082;-76
2022/05/31 05:12:26;;;;;;;0.93;0.20;;;;;;;;;;5093978;28;20099;-76
2022/05/31 05:14:54;;;;;;;0.75;0.30;;;;;;;;;;5094025;28;20081;-76
2022/05/31 05:17:26;;;;;;;1.85;0.52;;;;;;;;;;5093869;28;20044;-77
2022/05/31 05:19:54;;;;;;;0.70;0.20;;;;;;;;;;5094096;28;20548;-76
2022/05/31 05:22:21;;;;;;;0.85;0.10;;;;;;;;;;5092361;28;20032;-77
2022/05/31 05:24:48;;;;;;;1.15;0.20;;;;;;;;;;5092496;28;20020;-77
2022/05/31 05:27:15;;;;;;;0.45;0.13;;;;;;;;;;5092421;28;20030;-78
2022/05/31 05:32:27;;;;;;;1.85;0.35;;;;;;;;;;5093680;28;20031;-78
2022/05/31 05:34:55;;;;;;;1.83;0.28;;;;;;;;;;5093695;28;20028;-78
2022/05/31 05:37:25;;;;;;;1.08;0.40;;;;;;;;;;5093551;28;20024;-77
2022/05/31 05:39:52;;;;;;;0.10;0.03;;;;;;;;;;5093952;28;20483;-76
2022/05/31 05:42:19;;;;;;;1.17;0.10;;;;;;;;;;5092047;28;20035;-77
2022/05/31 05:44:46;;;;;;;0.45;0.20;;;;;;;;;;5092085;28;20028;-78
2022/05/31 05:47:16;;;;;;;1.75;0.35;;;;;;;;;;5093401;28;20023;-77
2022/05/31 05:49:44;;;;;;;1.50;0.22;;;;;;;;;;5093553;28;20483;-78
2022/05/31 05:52:17;;;;;;;0.43;0.17;;;;;;;;;;5091622;28;20028;-78
2022/05/31 05:54:44;;;;;;;0.55;0.30;;;;;;;;;;5093435;28;20077;-76
2022/05/31 05:57:12;;;;;;;1.80;0.32;;;;;;;;;;5093328;28;20169;-76
2022/05/31 05:59:39;;;;;;;2.33;0.40;;;;;;;;;;5094805;28;20381;-78
2022/05/31 06:02:18;;;;;;;2.10;0.30;;;;;;;;;;5094354;28;20448;-78
2022/05/31 06:04:52;;;;;;;3.95;0.50;;;;;;;;;;5093176;28;20131;-77
2022/05/31 06:07:22;;;;;;;2.15;0.30;;;;;;;;;;5092637;28;20483;-77
2022/05/31 06:09:57;;;;;;;4.03;0.60;;;;;;;;;;5093163;28;20073;-78
2022/05/31 06:12:28;;;;;;;2.05;0.40;;;;;;;;;;5094479;28;20086;-77
2022/05/31 06:15:02;;;;;;;1.48;0.30;;;;;;;;;;5092072;28;20024;-77
2022/05/31 06:17:33;;;;;;;1.52;0.40;;;;;;;;;;5091718;28;20032;-76
2022/05/31 06:20:02;;;;;;;1.98;0.35;;;;;;;;;;5094118;28;20115;-76
2022/05/31 06:22:29;;;;;;;2.92;0.30;;;;;;;;;;5093385;28;20016;-77
2022/05/31 06:24:58;;;;;;;1.27;0.30;;;;;;;;;;5094318;28;20016;-77
2022/05/31 06:27:27;;;;;;;0.80;0.40;;;;;;;;;;5094545;28;20028;-77
2022/05/31 06:29:54;;;;;;;1.25;0.45;;;;;;;;;;5093524;28;20095;-77
2022/05/31 06:32:21;;;;;;;2.22;0.40;;;;;;;;;;5091854;28;20024;-78
2022/05/31 06:34:48;;;;;;;1.75;0.77;;;;;;;;;;5093227;28;20027;-77
2022/05/31 06:37:16;;;;;;;0.95;0.30;;;;;;;;;;5093294;28;20028;-77
2022/05/31 06:39:45;;;;;;;0.30;0.20;;;;;;;;;;5092935;28;20025;-77
2022/05/31 06:42:12;;;;;;;0.40;0.30;;;;;;;;;;5091401;28;20048;-77
2022/05/31 06:44:41;;;;;;;1.10;0.38;;;;;;;;;;5093132;28;20028;-77
2022/05/31 06:47:08;;;;;;;1.92;0.50;;;;;;;;;;5092922;28;20020;-77
2022/05/31 06:49:36;;;;;;;2.17;0.30;;;;;;;;;;5092793;28;20483;-77
2022/05/31 06:57:36;;;;;;;1.20;0.28;;;;;;;;;;5092701;28;20074;-76
2022/05/31 07:00:06;;;;;;;1.70;0.30;;;;;;;;;;5092706;28;20058;-77
2022/05/31 07:02:34;;;;;;;1.67;0.60;;;;;;;;;;5092268;28;20563;-77
2022/05/31 07:05:01;;;;;;;2.70;0.50;;;;;;;;;;5093516;28;20091;-78
2022/05/31 07:07:28;;;;;;;1.67;0.22;;;;;;;;;;5094974;28;20016;-78
2022/05/31 07:09:55;;;;;;;0.55;0.20;;;;;;;;;;5096366;28;20077;-77
2022/05/31 07:12:22;;;;;;;1.45;0.50;;;;;;;;;;5094892;28;20028;-78
2022/05/31 07:14:50;;;;;;;0.77;0.30;;;;;;;;;;5096277;28;20031;-77
2022/05/31 07:17:17;;;;;;;0.65;0.22;;;;;;;;;;5094721;28;20444;-77
2022/05/31 07:19:44;;;;;;;0.47;0.17;;;;;;;;;;5096458;28;20441;-77
2022/05/31 07:22:11;;;;;;;0.98;0.40;;;;;;;;;;5096363;28;20107;-77
2022/05/31 07:24:38;;;;;;;2.92;2.40;;;;;;;;;;5094756;28;20024;-77
2022/05/31 07:27:06;;;;;;;2.42;1.33;;;;;;;;;;5096065;28;20020;-76
2022/05/31 07:29:33;;;;;;;0.50;0.20;;;;;;;;;;5096198;28;20146;-79
2022/05/31 07:32:01;;;;;;;0.77;0.40;;;;;;;;;;5094549;28;20024;-76
2022/05/31 07:34:28;;;;;;;0.95;0.20;;;;;;;;;;5095926;28;20024;-76
2022/05/31 07:36:55;;;;;;;0.88;0.15;;;;;;;;;;5095947;28;20034;-78
2022/05/31 07:39:23;;;;;;;0.50;0.20;;;;;;;;;;5095889;28;20027;-76
2022/05/31 07:41:52;;;;;;;0.55;0.30;;;;;;;;;;5095802;28;20024;-75
2022/05/31 07:44:19;;;;;;;1.02;0.20;;;11.70;99.90;;;;;;5095691;28;20016;-75
2022/05/31 07:46:47;;;;;;;0.68;0.30;;;11.60;99.90;;;;;;5094174;28;20104;-75
2022/05/31 07:49:15;;;;;;;0.75;0.20;;;11.50;99.90;;;;;;5095671;28;20024;-75
2022/05/31 07:51:43;;;;;;;1.08;0.20;;;11.50;99.90;;;;;;5095643;28;20024;-74
2022/05/31 07:54:10;;;;;;;1.10;0.38;;;11.40;99.90;;;;;;5095739;28;20024;-75
2022/05/31 07:56:37;;;;;;;0.35;0.20;;;11.40;99.90;;;;;;5095520;28;20012;-75
2022/05/31 07:59:05;;;;;;;0.20;0.20;;;11.40;99.90;;;;;;5095005;28;20020;-76
2022/05/31 08:01:32;;;;;;;1.90;0.50;;;11.30;99.90;;;;;;5095254;28;20060;-75
2022/05/31 08:04:00;;;;;;;0.43;0.20;;;11.30;99.90;;;;;;5095335;28;20429;-75
2022/05/31 08:06:32;;;;;;;1.55;0.20;;;11.30;99.90;;;;;;5095241;28;20024;-75
2022/05/31 08:09:00;;;;;;;0.35;0.10;;;11.30;99.90;;;;;;5095291;28;20016;-75
2022/05/31 08:11:33;;;;;;;1.20;0.40;;;11.30;99.90;;;;;;5095228;28;20020;-76
2022/05/31 08:14:01;;;;;;;0.60;0.38;;;11.20;99.90;;;;;;5094169;28;20020;-76
2022/05/31 08:16:32;;;;;;;0.68;0.30;;;11.20;99.90;;;;;;5094873;28;20113;-77
2022/05/31 08:18:59;;;;;;;1.10;0.30;;;11.10;99.90;;;;;;5095309;28;20016;-76
2022/05/31 08:21:30;;;;;;;1.50;0.30;;;11.10;99.90;;;;;;5093743;28;20028;-76
2022/05/31 08:24:00;;;;;;;0.85;0.30;;;11.20;99.90;;;;;;5095612;28;20016;-76
2022/05/31 08:26:27;;;;;;;1.40;0.47;;;11.20;99.90;;;;;;5095291;28;20016;-75
2022/05/31 08:28:55;;;;;;;1.90;0.52;;;11.30;99.90;;;;;;5093609;28;20055;-76
2022/05/31 08:31:33;;;;;;;0.85;0.30;;;11.20;99.90;;;;;;5095122;28;20020;-76
2022/05/31 08:34:00;;;;;;;3.35;0.25;;;11.30;99.90;;;;;;5093787;28;20418;-77
2022/05/31 08:36:27;;;;;;;1.05;0.28;;;11.30;99.90;;;;;;5095637;28;20046;-75
2022/05/31 08:38:55;;;;;;;0.52;0.30;;;11.30;99.90;;;;;;5095131;28;20020;-76
2022/05/31 08:41:36;;;;;;;1.67;0.32;;;11.30;99.90;;;;;;5095128;28;20467;-76
2022/05/31 08:44:37;;;;;;;2.10;0.80;;;11.30;99.90;;;;;;5093845;28;20050;-76
2022/05/31 08:47:04;;;;;;;;;;;11.40;99.90;;;;;;5096054;28;20024;-76
2022/05/31 08:53:05;;;;;;;1.90;0.30;;;11.30;99.90;;;;;;5077205;28;20040;-76
2022/05/31 08:58:33;;;;;;;0.40;0.20;;;11.20;99.90;;;;;;5095344;28;20524;-75
2022/05/31 09:01:02;;;;;;;1.13;0.28;;;11.20;99.90;;;;;;5094941;28;20090;-76
2022/05/31 09:03:38;;;;;;;0.55;0.20;;;11.10;99.90;;;;;;5094409;28;20023;-75
2022/05/31 09:06:10;;;;;;;1.55;0.28;;;11.10;99.90;;;;;;5094972;28;20036;-75
2022/05/31 09:08:44;;;;;;;1.92;0.32;;;11.10;99.90;;;;;;5092965;28;20028;-75
2022/05/31 09:11:38;;;;;;;1.25;0.60;;;11.10;99.90;;;;;;5094215;28;20471;-75
2022/05/31 09:14:17;;;;;;;0.80;0.40;;;11.00;99.90;;;;;;5095001;28;20028;-75
2022/05/31 09:17:07;;;;;;;0.73;0.32;;;11.00;99.90;;;;;;5094737;28;20052;-76
2022/05/31 09:20:01;;;;;;;0.97;0.50;;;10.90;99.90;;;;;;5094676;28;20020;-76
2022/05/31 09:22:29;;;;;;;1.77;0.50;;;10.80;99.90;;;;;;5092132;28;20032;-74
2022/05/31 09:24:56;;;;;;;0.90;0.50;;;10.80;99.90;;;;;;5094261;28;20098;-75
2022/05/31 09:27:36;;;;;;;1.15;0.55;;;10.70;99.90;;;;;;5091721;28;20111;-75
2022/05/31 09:30:28;;;;;;;2.92;0.60;;;10.60;99.90;;;;;;5093685;28;20066;-75
2022/05/31 09:33:13;;;;;;;1.55;0.40;;;10.60;99.90;;;;;;5093596;28;20103;-75
2022/05/31 09:36:12;;;;;;;0.88;0.38;;;10.60;99.90;;;;;;5093816;28;20099;-75
2022/05/31 09:39:03;;;;;;;1.52;0.50;;;10.60;99.90;;;;;;5092188;28;20020;-75
2022/05/31 09:41:51;;;;;;;2.00;0.52;;;10.50;99.90;;;;;;5093616;28;20024;-75
2022/05/31 09:44:44;;;;;;;2.17;0.50;;;10.50;99.90;;;;;;5093659;28;20031;-74
2022/05/31 09:47:27;;;;;;;3.22;0.50;;;10.60;99.90;;;;;;5092063;28;20058;-75
2022/05/31 09:49:55;;;;;;;1.70;0.47;;;10.60;99.90;;;;;;5092142;28;20016;-74
2022/05/31 09:52:45;;;;;;;1.92;0.55;;;10.70;99.90;;;;;;5093396;28;20106;-75
2022/05/31 09:58:38;;;;;;;1.65;0.47;;;11.00;99.90;;;;;;5093384;28;20081;-74
2022/05/31 10:01:13;;;;;;;2.08;0.43;;;11.10;99.90;;;;;;5093092;28;20044;-76
2022/05/31 10:03:46;;;;;;;2.47;0.75;;;11.20;99.90;;;;;;5093375;28;20042;-75
2022/05/31 10:06:20;;;;;;;1.30;0.35;;;11.20;99.90;;;;;;5091855;28;20016;-74
2022/05/31 10:08:52;;;;;;;0.93;0.28;;;11.30;99.90;;;;;;5093347;28;20020;-74
2022/05/31 10:11:37;;;;;;;1.27;0.30;;;11.30;99.90;;;;;;5093091;28;20028;-74
2022/05/31 10:14:22;;;;;;;1.13;0.40;;;11.40;99.90;;;;;;5093370;28;20026;-75
2022/05/31 10:16:49;;;;;;;1.15;0.20;;;11.50;99.90;;;;;;5093477;28;20048;-75
2022/05/31 10:19:30;;;;;;;0.82;0.20;;;11.60;99.90;;;;;;5092094;28;20020;-74
2022/05/31 10:22:16;;;;;;;0.93;0.20;;;11.60;99.90;;;;;;5091950;28;20032;-73
2022/05/31 10:24:43;;;;;;;0.95;0.10;;;11.60;99.90;;;;;;5093925;28;20098;-75
2022/05/31 10:27:18;;;;;;;1.35;0.20;;;11.60;99.90;;;;;;5091847;28;20016;-73
2022/05/31 10:29:59;;;;;;;0.57;0.10;;;11.60;99.90;;;;;;5093523;28;20039;-74
2022/05/31 10:32:26;;;;;;;;;;;11.70;99.90;;;;;;5093591;28;20459;-75
2022/05/31 10:35:07;;;;;;;1.33;0.20;;;;;;;;;;5112922;28;19940;-74
2022/05/31 10:37:35;;;;;;;3.17;0.65;;;11.70;99.90;;;;;;5095143;28;20028;-74
2022/05/31 10:40:09;;;;;;;0.93;0.20;;;11.80;99.90;;;;;;5099542;28;20495;-73
2022/05/31 10:42:44;;;;;;;1.08;0.28;;;11.80;99.90;;;;;;5100115;28;20024;-74
2022/05/31 10:45:26;;;;;;;0.65;0.30;;;11.70;99.90;;;;;;5102324;28;20024;-75
2022/05/31 10:47:56;;;;;;;0.93;0.40;;;11.70;99.90;;;;;;5104202;28;20026;-75
2022/05/31 10:50:33;;;;;;;1.25;0.30;;;11.70;99.90;;;;;;5103444;28;20103;-75
2022/05/31 10:53:17;;;;;;;1.13;0.20;;;11.70;99.90;;;;;;5102227;28;20028;-74
2022/05/31 10:56:05;;;;;;;1.73;0.30;;;11.70;99.90;;;;;;5100403;28;20092;-73
2022/05/31 10:58:57;;;;;;;0.95;0.20;;;11.70;99.90;;;;;;5097780;28;20058;-75
2022/05/31 11:01:46;;;;;;;1.67;0.30;;;11.70;99.90;;;;;;5096507;28;20056;-74
2022/05/31 11:04:41;;;;;;;0.85;0.20;;;11.60;99.90;;;;;;5096368;28;20395;-74
2022/05/31 11:07:36;;;;;;;0.93;0.30;;;11.50;99.90;;;;;;5097367;28;20035;-75
2022/05/31 11:13:23;;;;;;;0.47;0.20;;;11.60;99.90;;;;;;5098294;28;20023;-75
2022/05/31 11:16:11;;;;;;;1.63;0.50;;;11.50;99.90;;;;;;5097703;28;20046;-74
2022/05/31 11:18:46;;;;;;;1.45;0.32;;;11.40;99.90;;;;;;5095855;28;20035;-74
2022/05/31 11:21:23;;;;;;;0.60;0.50;;;;;;;;;;5097402;28;20066;-74
2022/05/31 11:24:08;;;;;;;0.85;0.30;;;11.40;99.90;;;;;;5098657;28;20107;-74
2022/05/31 11:27:14;;;;;;;1.67;0.30;;;11.40;99.90;;;;;;5096248;28;20054;-75
2022/05/31 11:30:06;;;;;;;0.45;0.20;;;11.40;99.90;;;;;;5090629;28;20043;-74
2022/05/31 11:32:43;;;;;;;1.30;0.22;;;;;;;;;;5096192;28;20020;-75
2022/05/31 11:35:13;;;;;;;0.45;0.25;;;;;;;;;;5094515;28;20507;-75
2022/05/31 11:37:42;;;;;;;1.35;0.43;;;;;;;;;;5095904;28;20032;-74
2022/05/31 11:40:39;;;;;;;1.05;0.38;;;;;;;;;;5094711;28;20426;-74
2022/05/31 11:43:06;;;;;;;3.03;0.35;;;;;;;;;;5094339;28;20020;-75
2022/05/31 11:45:47;;;;;;;0.90;0.50;;;;;;;;;;5094803;28;20020;-74
2022/05/31 11:48:32;;;;;;;2.25;0.40;;;11.20;99.90;;;;;;5094374;28;20496;-74
2022/05/31 11:51:17;;;;;;;5.68;0.50;;;;;;;;;;5095075;28;20031;-74
2022/05/31 11:53:44;;;;;;;0.63;0.20;;;;;;;;;;5094126;28;20055;-74
2022/05/31 11:56:18;;;;;;;1.52;0.35;;;;;;;;;;5095606;28;20024;-74
2022/05/31 11:58:51;;;;;;;1.38;0.30;;;;;;;;;;5095992;28;20032;-75
2022/05/31 12:01:21;;;;;;;1.88;0.30;;;;;;;;;;5095724;28;20051;-75
2022/05/31 12:03:55;;;;;;;1.10;0.20;;;;;;;;;;5095835;28;20027;-75
2022/05/31 12:06:39;;;;;;;0.73;0.20;;;;;;;;;;5096714;28;20383;-76
2022/05/31 12:09:26;;;;;;;1.23;0.30;;;;;;;;;;5096189;28;20467;-75
2022/05/31 12:12:14;;;;;;;1.58;0.40;;;;;;;;;;5096131;28;20468;-74
2022/05/31 12:14:44;;;;;;;1.85;0.30;;;;;;;;;;5094925;28;20020;-74
2022/05/31 12:17:11;;;;;;;2.10;0.30;;;;;;;;;;5096077;28;20518;-73
2022/05/31 12:19:56;;;;;;;1.23;0.30;;;;;;;;;;5095813;28;20020;-73
2022/05/31 12:22:29;;;;;;;1.88;0.30;;;;;;;;;;5094658;28;20047;-74
2022/05/31 12:25:00;;;;;;;2.75;0.50;;;;;;;;;;5095559;28;20016;-74
2022/05/31 12:27:39;;;;;;;1.67;0.40;;;;;;;;;;5095456;28;20024;-74
2022/05/31 12:30:06;;;;;;;1.30;0.30;;;;;;;;;;5095121;28;20376;-73
2022/05/31 12:32:36;;;;;;;0.93;0.25;;;;;;;;;;5095069;28;20379;-73
2022/05/31 12:35:05;;;;;;;2.60;0.40;;;;;;;;;;5095084;28;20487;-74
2022/05/31 12:37:50;;;;;;;1.92;0.47;;;;;;;;;;5094782;28;20028;-73
2022/05/31 12:40:38;;;;;;;0.57;0.13;;;;;;;;;;5094754;28;20119;-74
2022/05/31 12:43:07;;;;;;;1.45;0.30;;;;;;;;;;5095704;28;20024;-74
2022/05/31 12:45:34;;;;;;;1.42;0.30;;;;;;;;;;5095369;28;20099;-74
2022/05/31 12:48:02;;;;;;;1.95;0.38;;;;;;;;;;5096013;28;20072;-74
2022/05/31 12:50:45;;;;;;;1.58;0.30;;;;;;;;;;5093826;28;20495;-75
2022/05/31 12:55:46;;;;;;;3.38;0.68;;;;;;;;;;5094743;28;20107;-74
2022/05/31 13:00:56;;;;;;;1.70;0.30;;;;;;;;;;5094135;28;20555;-74
2022/05/31 13:03:33;;;;;;;0.32;0.17;;;;;;;;;;5091948;28;20114;-74
2022/05/31 13:06:03;;;;;;;1.15;0.47;;;;;;;;;;5094502;28;20494;-73
2022/05/31 13:08:48;;;;;;;2.78;0.60;;;;;;;;;;5094514;28;20023;-74
2022/05/31 13:20:20;;;;;;;1.15;0.32;;;;;;;;;;5094169;28;20522;-74
2022/05/31 13:22:53;;;;;;;2.33;0.45;;;;;;;;;;5093890;28;20380;-74
2022/05/31 13:25:25;;;;;;;1.13;0.30;;;;;;;;;;5094056;28;20494;-74
2022/05/31 13:27:53;;;;;;;1.52;0.28;;;;;;;;;;5094451;28;20028;-74
2022/05/31 13:30:21;;;;;;;0.80;0.25;;;;;;;;;;5092427;28;20114;-74
2022/05/31 13:32:50;;;;;;;0.75;0.20;;;;;;;;;;5093832;28;20030;-73
2022/05/31 13:35:20;;;;;;;1.80;0.20;;;;;;;;;;5093877;28;20035;-74
2022/05/31 13:37:49;;;;;;;2.05;0.63;;;;;;;;;;5092291;28;20031;-74
2022/05/31 13:40:24;;;;;;;0.75;0.15;;;;;;;;;;5093901;28;20360;-75
2022/05/31 13:42:56;;;;;;;1.08;0.20;;;;;;;;;;5093861;28;20131;-73
2022/05/31 13:45:25;;;;;;;2.75;0.20;;;;;;;;;;5093604;28;20421;-73
2022/05/31 13:47:54;;;;;;;2.53;0.60;;;;;;;;;;5093605;28;20066;-73
2022/05/31 13:50:24;;;;;;;1.27;0.28;;;;;;;;;;5093676;28;20028;-73
2022/05/31 13:52:52;;;;;;;1.10;0.30;;;;;;;;;;5093577;28;20035;-73
2022/05/31 13:55:33;;;;;;;1.17;0.45;;;;;;;;;;5093485;28;20141;-72
2022/05/31 13:58:02;;;;;;;1.95;0.17;;;;;;;;;;5093763;28;20107;-73
2022/05/31 14:00:43;;;;;;;0.80;0.20;;;;;;;;;;5093346;28;20020;-73
2022/05/31 14:03:27;;;;;;;1.70;0.40;;;;;;;;;;5091988;28;20028;-73
2022/05/31 14:05:54;;;;;;;1.60;0.43;;;;;;;;;;5093489;28;20020;-73
2022/05/31 14:08:26;;;;;;;1.63;0.40;;;;;;;;;;5093472;28;20440;-73
2022/05/31 14:10:54;;;;;;;1.13;0.30;;;;;;;;;;5093577;28;20136;-73
2022/05/31 14:13:26;;;;;;;0.77;0.65;;;;;;;;;;5093188;28;20147;-73
2022/05/31 14:16:13;;;;;;;0.80;0.30;;;;;;;;;;5093475;28;20027;-75
2022/05/31 14:18:42;;;;;;;2.28;0.40;;;;;;;;;;5092981;28;20062;-74
2022/05/31 14:21:09;;;;;;;0.82;0.20;;;;;;;;;;5093384;28;20487;-75
2022/05/31 14:23:36;;;;;;;0.95;0.25;;;;;;;;;;5093216;28;20024;-75
2022/05/31 14:26:04;;;;;;;1.45;0.40;;;;;;;;;;5091703;28;20028;-77
2022/05/31 14:28:31;;;;;;;3.25;0.68;;;;;;;;;;5091645;28;20016;-74
2022/05/31 14:31:00;;;;;;;2.10;0.55;;;;;;;;;;5093138;28;20025;-75
2022/05/31 14:33:29;;;;;;;1.45;0.50;;;;;;;;;;5092990;28;20024;-75
2022/05/31 14:35:57;;;;;;;1.92;0.40;;;;;;;;;;5093299;28;20051;-76
2022/05/31 14:38:28;;;;;;;2.13;0.52;;;;;;;;;;5091566;28;20023;-76
2022/05/31 14:41:06;;;;;;;2.42;0.40;;;;;;;;;;5093096;28;20028;-76
2022/05/31 14:43:36;;;;;;;1.00;0.40;;;;;;;;;;5091414;28;20024;-76
2022/05/31 14:46:05;;;;;;;1.13;0.30;;;;;;;;;;5093122;28;20024;-77
2022/05/31 14:48:44;;;;;;;1.45;0.40;;;;;;;;;;5093117;28;20037;-75
2022/05/31 14:51:24;;;;;;;1.20;0.50;;;;;;;;;;5091473;28;20020;-75
2022/05/31 14:53:53;;;;;;;1.90;0.73;;;;;;;;;;5092878;28;20032;-76
2022/05/31 14:56:21;;;;;;;1.73;0.60;;;;;;;;;;5091482;28;20024;-74
2022/05/31 14:58:52;;;;;;;2.33;0.43;;;;;;;;;;5092766;28;20394;-75
2022/05/31 15:01:19;;;;;;;1.63;0.40;;;;;;;;;;5092794;28;20056;-75
2022/05/31 15:03:48;;;;;;;1.60;0.30;;;;;;;;;;5092948;28;20016;-75
2022/05/31 15:06:26;;;;;;;1.30;0.52;;;;;;;;;;5092718;28;20032;-75
2022/05/31 15:09:19;;;;;;;1.48;0.40;;;;;;;;;;5092757;28;20021;-75
2022/05/31 15:20:22;;;;;;;2.35;0.38;;;;;;;;;;5092899;28;20152;-76
2022/05/31 15:22:50;;;;;;;1.38;0.40;;;;;;;;;;5092545;28;20028;-75
2022/05/31 15:25:19;;;;;;;1.55;0.20;;;;;;;;;;5092828;28;20024;-76
2022/05/31 15:27:47;;;;;;;1.75;0.40;;;;;;;;;;5096227;28;20048;-75